Airfield :
LOGIN :

Register | Disclaimer

   EN    FR    IT 

 










Legend :    VFR   Marginal VFR   IFR   Intensive IFR   Very Intensive IFR
Visi :
Ceiling :
>= 8 km
>= 3000ft
5 to 8 km
1000 to 3000 ft
1500m to 5 km
500 to 1000 ft
800 to 1500m
200 to 500 ft
< 800m
< 200 ft
Symbols :   Thunderstorms  Fog  Heavy snow  Heavy precipitations  Wind > 20 kt
SIGMETs :     Misc.  Thunderstorms  Icing  Turbulence  Mountain Waves  Volcanic Ashes






- Airport Elevation : 13 ft
- IATA code : GOA


LIMJ - Genoa Cristoforo Colombo

CURRENT METAR :
  • 200050Z 12025KT 9999 FEW018 SCT025 BKN040 20/17 Q1015

EXPIRED METARs :
  • 200020Z 12023KT 9999 FEW018 SCT025 BKN040 20/17 Q1015
  • 192350Z 12024KT 9999 FEW018 SCT025 BKN040 20/17 Q1015
  • 192320Z 12023KT 9999 FEW018 SCT025 BKN040 20/17 Q1015
  • 192250Z 12020KT 9999 -RA FEW018 SCT025 BKN040 20/17 Q1015
  • 192220Z 13021KT 9999 -RA FEW018 SCT025 BKN040 20/18 Q1015

TAF TAF LIMJ
Valid from the 20 at 00:00 until the 21 at 00:00 UTC


192300Z 2000/2024 15020KT 9999 RA SCT015 BKN040
TEMPO 2009/2024 4000 TSRA



MET'MAP, your aeronautical weather chart ! - Copyright ORBIFLY December 2007 - Disclaimer

ORBIFLY MET'MAP TEAM :

Programming & Development : Alexandra Zaïnal
Concept & Development : Baudouin d'Aumeries
Co-Development & Prog : Marc-Olivier Méhu
Technical & hardware support : Manuel Goepfert

Contact : metmap@orbifly.com




SOURCES & CREDITS :

   NOAA